createdAt,value
2023-04-06T00:00:05.590Z,21.60
2023-04-06T00:02:37.759Z,19.97
2023-04-06T00:05:08.117Z,21.50
2023-04-06T00:07:36.535Z,20.33
2023-04-06T00:10:06.087Z,21.23
2023-04-06T00:12:34.235Z,20.70
2023-04-06T00:15:02.871Z,21.43
2023-04-06T00:17:31.028Z,20.43
2023-04-06T00:19:59.126Z,21.13
2023-04-06T00:22:28.571Z,20.53
2023-04-06T00:24:56.694Z,20.13
2023-04-06T00:27:24.736Z,22.80
2023-04-06T00:29:52.893Z,23.80
2023-04-06T00:32:21.227Z,22.10
2023-04-06T00:34:49.400Z,24.37
2023-04-06T00:37:17.515Z,21.87
2023-04-06T00:39:47.036Z,22.33
2023-04-06T00:42:15.639Z,22.50
2023-04-06T00:44:43.942Z,21.53
2023-04-06T00:47:12.291Z,24.93
2023-04-06T00:49:40.852Z,23.10
2023-04-06T00:52:10.359Z,24.17
2023-04-06T00:54:38.888Z,22.03
2023-04-06T00:57:08.958Z,23.57
2023-04-06T00:59:37.288Z,23.67
2023-04-06T01:02:08.885Z,23.83
2023-04-06T01:04:44.147Z,22.23
2023-04-06T01:07:20.925Z,23.83
2023-04-06T01:10:03.940Z,22.70
2023-04-06T01:12:35.141Z,26.17
2023-04-06T01:15:08.580Z,27.40
2023-04-06T01:17:39.427Z,25.23
2023-04-06T01:20:13.350Z,25.97
2023-04-06T01:22:43.393Z,24.40
2023-04-06T01:25:13.252Z,22.83
2023-04-06T01:28:01.625Z,23.40
2023-04-06T01:30:46.122Z,23.00
2023-04-06T01:33:26.578Z,27.23
2023-04-06T01:36:02.079Z,22.03
2023-04-06T01:38:32.221Z,27.63
2023-04-06T01:41:00.322Z,25.13
2023-04-06T01:43:33.389Z,23.73
2023-04-06T01:46:07.632Z,25.90
2023-04-06T01:48:38.597Z,25.80
2023-04-06T01:51:27.682Z,23.37
2023-04-06T01:54:03.591Z,24.63
2023-04-06T01:56:40.961Z,24.43
2023-04-06T01:59:29.374Z,28.50
2023-04-06T02:01:58.800Z,27.90
2023-04-06T02:04:28.899Z,23.30
2023-04-06T02:07:07.365Z,26.67
2023-04-06T02:09:37.213Z,24.80
2023-04-06T02:12:08.280Z,24.33
2023-04-06T02:14:36.600Z,27.07
2023-04-06T02:17:04.681Z,28.60
2023-04-06T02:19:33.271Z,25.60
2023-04-06T02:22:01.407Z,24.67
2023-04-06T02:24:29.515Z,28.30
2023-04-06T02:26:58.980Z,27.80
2023-04-06T02:29:27.056Z,32.37
2023-04-06T02:31:55.350Z,38.70
2023-04-06T02:34:24.284Z,36.47
2023-04-06T02:36:53.565Z,43.60
2023-04-06T02:39:21.716Z,41.77
2023-04-06T02:41:49.857Z,43.03
2023-04-06T02:44:23.816Z,36.07
2023-04-06T02:46:51.922Z,40.87
2023-04-06T02:49:20.063Z,34.97
2023-04-06T02:51:48.234Z,33.10
2023-04-06T02:54:21.238Z,32.93
2023-04-06T02:56:49.323Z,33.07
2023-04-06T02:59:17.555Z,34.03
2023-04-06T03:01:55.364Z,30.93
2023-04-06T03:04:26.381Z,28.40
2023-04-06T03:06:58.779Z,32.33
2023-04-06T03:09:36.221Z,31.23
2023-04-06T03:12:04.502Z,32.73
2023-04-06T03:14:39.646Z,32.97
2023-04-06T03:17:09.135Z,30.23
2023-04-06T03:19:37.496Z,33.57
2023-04-06T03:22:06.098Z,33.50
2023-04-06T03:24:34.434Z,34.30
2023-04-06T03:27:02.575Z,35.40
2023-04-06T03:29:30.962Z,33.83
2023-04-06T03:31:59.172Z,34.23
2023-04-06T03:34:37.252Z,35.93
2023-04-06T03:37:10.285Z,35.40
2023-04-06T03:39:44.269Z,31.27
2023-04-06T03:42:17.611Z,32.27
2023-04-06T03:44:53.859Z,31.83
2023-04-06T03:47:22.328Z,34.80
2023-04-06T03:49:51.846Z,34.27
2023-04-06T03:52:20.231Z,33.97
2023-04-06T03:54:48.303Z,34.97
2023-04-06T03:57:16.373Z,34.00
2023-04-06T03:59:44.615Z,33.90
2023-04-06T04:02:12.777Z,35.53
2023-04-06T04:04:41.292Z,34.53
2023-04-06T04:07:10.868Z,33.57
2023-04-06T04:09:39.149Z,32.70
2023-04-06T04:12:07.767Z,34.00
2023-04-06T04:14:36.565Z,33.50
2023-04-06T04:17:04.750Z,31.60
2023-04-06T04:19:32.898Z,35.27
2023-04-06T04:22:01.106Z,32.13
2023-04-06T04:24:36.355Z,31.03
2023-04-06T04:27:05.733Z,31.20
2023-04-06T04:29:34.672Z,33.17
2023-04-06T04:32:07.423Z,30.93
2023-04-06T04:34:35.637Z,32.37
2023-04-06T04:37:06.286Z,33.53
2023-04-06T04:39:47.405Z,32.63
2023-04-06T04:42:15.878Z,34.83
2023-04-06T04:44:49.320Z,38.83
2023-04-06T04:47:23.237Z,45.23
2023-04-06T04:49:51.315Z,44.60
2023-04-06T04:52:23.828Z,38.03
2023-04-06T04:55:03.469Z,31.00
2023-04-06T04:57:31.856Z,32.17
2023-04-06T05:00:00.047Z,32.57
2023-04-06T05:02:28.294Z,30.13
2023-04-06T05:05:10.591Z,32.23
2023-04-06T05:07:40.604Z,30.57
2023-04-06T05:10:14.403Z,32.77
2023-04-06T05:12:52.108Z,30.63
2023-04-06T05:15:20.566Z,35.13
2023-04-06T05:17:51.362Z,30.47
2023-04-06T05:20:24.319Z,30.67
2023-04-06T05:22:53.386Z,30.30
2023-04-06T05:25:22.940Z,31.97
2023-04-06T05:27:54.271Z,31.77
2023-04-06T05:30:34.149Z,30.90
2023-04-06T05:33:02.298Z,31.93
2023-04-06T05:35:38.936Z,33.43
2023-04-06T05:38:12.073Z,31.90
2023-04-06T05:40:42.179Z,30.77
2023-04-06T05:43:14.150Z,31.97
2023-04-06T05:45:46.560Z,30.57
2023-04-06T05:48:14.938Z,31.13
2023-04-06T05:50:43.029Z,29.40
2023-04-06T05:53:14.086Z,27.37
2023-04-06T05:55:48.105Z,29.60
2023-04-06T05:58:19.798Z,29.50
2023-04-06T06:00:49.382Z,28.03
2023-04-06T06:03:19.057Z,28.70
2023-04-06T06:05:52.780Z,28.40
2023-04-06T06:08:28.376Z,28.93
2023-04-06T06:10:58.794Z,26.37
2023-04-06T06:13:27.249Z,24.70
2023-04-06T06:15:56.549Z,27.63
2023-04-06T06:18:25.416Z,21.80
2023-04-06T06:20:55.565Z,25.17
2023-04-06T06:23:23.781Z,25.33
2023-04-06T06:25:51.989Z,26.23
2023-04-06T06:28:22.412Z,23.13
2023-04-06T06:30:50.461Z,23.63
2023-04-06T06:33:22.819Z,25.50
2023-04-06T06:35:54.064Z,22.33
2023-04-06T06:38:23.760Z,22.37
2023-04-06T06:40:52.825Z,21.73
2023-04-06T06:43:23.301Z,23.13
2023-04-06T06:45:57.508Z,22.87
2023-04-06T06:48:26.026Z,20.83
2023-04-06T06:50:55.302Z,22.53
2023-04-06T06:53:23.547Z,20.93
2023-04-06T06:55:51.711Z,22.77
2023-04-06T06:58:20.808Z,20.70
2023-04-06T07:00:50.975Z,21.67
2023-04-06T07:03:19.143Z,21.87
2023-04-06T07:05:54.282Z,20.10
2023-04-06T07:08:24.999Z,19.70
2023-04-06T07:10:54.478Z,18.40
2023-04-06T07:13:23.698Z,19.07
2023-04-06T07:15:56.077Z,22.70
2023-04-06T07:18:24.729Z,20.90
2023-04-06T07:20:52.981Z,19.70
2023-04-06T07:23:21.432Z,19.70
2023-04-06T07:25:52.006Z,18.67
2023-04-06T07:28:20.248Z,18.77
2023-04-06T07:30:48.508Z,18.73
2023-04-06T07:33:18.492Z,16.57
2023-04-06T07:35:47.503Z,18.73
2023-04-06T07:38:16.026Z,17.97
2023-04-06T07:40:44.763Z,17.30
2023-04-06T07:43:13.260Z,17.47
2023-04-06T07:45:41.703Z,17.17
2023-04-06T07:48:10.062Z,17.40
2023-04-06T07:50:39.954Z,19.33
2023-04-06T07:53:08.436Z,17.27
2023-04-06T07:55:36.861Z,18.20
2023-04-06T07:58:04.979Z,23.37
2023-04-06T08:00:33.328Z,21.40
2023-04-06T08:03:01.654Z,18.20
2023-04-06T08:05:30.229Z,17.03
2023-04-06T08:07:59.724Z,15.57
2023-04-06T08:10:27.850Z,19.97
2023-04-06T08:12:55.928Z,19.98
2023-04-06T08:15:23.998Z,21.55
2023-04-06T08:17:52.231Z,17.90
2023-04-06T08:20:20.370Z,18.02
2023-04-06T08:22:48.882Z,19.48
2023-04-06T08:25:19.681Z,21.33
2023-04-06T08:27:47.840Z,16.10
2023-04-06T08:30:16.813Z,15.95
2023-04-06T08:32:45.459Z,18.10
2023-04-06T08:35:13.981Z,16.58
2023-04-06T08:37:42.157Z,17.67
2023-04-06T08:40:10.942Z,16.27
2023-04-06T08:42:46.320Z,17.98
2023-04-06T08:45:16.647Z,17.23
2023-04-06T08:47:44.966Z,18.17
2023-04-06T08:50:13.545Z,15.23
2023-04-06T08:52:42.676Z,17.40
2023-04-06T08:55:11.230Z,16.08
2023-04-06T08:57:41.458Z,16.95
2023-04-06T09:00:12.731Z,16.10
2023-04-06T09:02:42.965Z,18.27
2023-04-06T09:05:11.952Z,15.68
2023-04-06T09:07:40.122Z,15.65
2023-04-06T09:10:09.287Z,16.48
2023-04-06T09:12:37.778Z,18.73
2023-04-06T09:15:08.634Z,14.20
2023-04-06T09:17:37.840Z,18.15
2023-04-06T09:20:07.175Z,16.55
2023-04-06T09:22:38.809Z,15.57
2023-04-06T09:25:08.390Z,17.13
2023-04-06T09:27:37.761Z,16.25
2023-04-06T09:30:09.375Z,17.50
2023-04-06T09:32:48.047Z,15.77
2023-04-06T09:35:16.750Z,16.27
2023-04-06T09:37:45.332Z,18.55
2023-04-06T09:40:14.478Z,15.57
2023-04-06T09:42:43.553Z,17.13
2023-04-06T09:45:13.508Z,16.20
2023-04-06T09:47:42.625Z,15.00
2023-04-06T09:50:13.042Z,16.40
2023-04-06T09:52:44.376Z,16.75
2023-04-06T09:55:12.912Z,16.10
2023-04-06T09:57:47.568Z,17.67
2023-04-06T10:00:23.172Z,17.98
2023-04-06T10:02:58.630Z,15.82
2023-04-06T10:05:36.185Z,17.55
2023-04-06T10:08:08.382Z,16.67
2023-04-06T10:10:36.586Z,17.85
2023-04-06T10:13:06.915Z,17.02
2023-04-06T10:15:36.504Z,15.85
2023-04-06T10:18:05.770Z,16.83
2023-04-06T10:20:40.923Z,16.77
2023-04-06T10:23:16.943Z,19.63
2023-04-06T10:25:54.740Z,17.70
2023-04-06T10:28:22.869Z,18.55
2023-04-06T10:30:59.670Z,17.63
2023-04-06T10:33:28.410Z,16.80
2023-04-06T10:35:58.155Z,18.23
2023-04-06T10:38:39.682Z,19.25
2023-04-06T10:41:11.207Z,19.15
2023-04-06T10:43:41.059Z,19.70
2023-04-06T10:46:11.914Z,19.65
2023-04-06T10:48:42.071Z,18.75
2023-04-06T10:51:14.271Z,20.58
2023-04-06T10:53:43.964Z,19.77
2023-04-06T10:56:13.465Z,19.50
2023-04-06T10:58:47.045Z,21.13
2023-04-06T11:01:17.256Z,20.50
2023-04-06T11:03:46.543Z,18.83
2023-04-06T11:06:20.793Z,22.85
2023-04-06T11:08:49.225Z,22.80
2023-04-06T11:11:20.211Z,20.58
2023-04-06T11:13:50.674Z,20.83
2023-04-06T11:16:21.488Z,20.70
2023-04-06T11:18:54.601Z,24.45
2023-04-06T11:21:34.135Z,21.02
2023-04-06T11:24:13.188Z,20.63
2023-04-06T11:26:42.860Z,19.95
2023-04-06T11:29:11.357Z,19.42
2023-04-06T11:31:46.877Z,20.55
2023-04-06T11:34:16.016Z,20.40
2023-04-06T11:36:44.890Z,20.17
2023-04-06T11:39:14.676Z,20.00
2023-04-06T11:41:42.879Z,21.23
2023-04-06T11:44:11.230Z,21.02
2023-04-06T11:46:39.422Z,20.73
2023-04-06T11:49:09.049Z,23.75
2023-04-06T11:51:38.771Z,22.17
2023-04-06T11:54:06.975Z,24.00
2023-04-06T11:56:35.029Z,21.27
2023-04-06T11:59:03.247Z,19.73
2023-04-06T12:01:34.139Z,20.23
2023-04-06T12:04:05.209Z,20.55
2023-04-06T12:06:34.719Z,21.92
2023-04-06T12:09:02.883Z,22.25
2023-04-06T12:11:31.057Z,21.13
2023-04-06T12:14:00.373Z,21.38
2023-04-06T12:16:28.585Z,21.02
2023-04-06T12:18:57.032Z,22.55
2023-04-06T12:21:25.436Z,21.02
2023-04-06T12:23:55.031Z,23.92
2023-04-06T12:26:23.371Z,22.17
2023-04-06T12:28:51.480Z,25.35
2023-04-06T12:31:20.565Z,21.90
2023-04-06T12:33:49.569Z,23.38
2023-04-06T12:36:20.083Z,21.00
2023-04-06T12:39:14.636Z,22.58
2023-04-06T12:41:42.703Z,22.02
2023-04-06T12:44:10.979Z,19.92
2023-04-06T12:46:39.161Z,20.05
2023-04-06T12:49:07.297Z,22.02
2023-04-06T12:51:35.505Z,21.58
2023-04-06T12:54:03.696Z,22.35
2023-04-06T12:56:33.685Z,22.92
2023-04-06T12:59:02.279Z,21.55
2023-04-06T13:01:30.785Z,20.80
2023-04-06T13:04:00.234Z,23.27
2023-04-06T13:06:31.058Z,23.35
2023-04-06T13:08:59.605Z,21.85
2023-04-06T13:11:28.724Z,21.05
2023-04-06T13:13:58.483Z,20.50
2023-04-06T13:16:26.722Z,22.63
2023-04-06T13:18:55.238Z,24.52
2023-04-06T13:21:23.349Z,22.67
2023-04-06T13:23:51.921Z,21.77
2023-04-06T13:26:20.102Z,22.77
2023-04-06T13:28:52.394Z,23.48
2023-04-06T13:31:22.134Z,22.65
2023-04-06T13:33:50.475Z,22.55
2023-04-06T13:36:18.612Z,24.08
2023-04-06T13:38:47.831Z,22.67
2023-04-06T13:41:21.929Z,25.17
2023-04-06T13:43:50.766Z,27.20
2023-04-06T13:46:19.026Z,25.77
2023-04-06T13:48:49.087Z,22.77
2023-04-06T13:51:17.338Z,22.10
2023-04-06T13:53:45.608Z,23.88
2023-04-06T13:56:13.620Z,24.98
2023-04-06T13:58:41.840Z,25.80
2023-04-06T14:01:11.399Z,25.67
2023-04-06T14:03:40.562Z,26.88
2023-04-06T14:08:45.448Z,27.05
2023-04-06T14:11:14.101Z,26.48
2023-04-06T14:13:42.942Z,27.55
2023-04-06T14:16:11.178Z,26.92
2023-04-06T14:18:39.732Z,27.42
2023-04-06T14:21:07.874Z,25.95
2023-04-06T14:23:38.012Z,27.58
2023-04-06T14:26:07.497Z,27.60
2023-04-06T14:28:35.975Z,24.77
2023-04-06T14:31:11.364Z,25.13
2023-04-06T14:33:39.451Z,27.02
2023-04-06T14:36:08.131Z,25.98
2023-04-06T14:38:37.659Z,26.98
2023-04-06T14:41:06.034Z,27.90
2023-04-06T14:43:34.221Z,25.90
2023-04-06T14:46:03.068Z,26.65
2023-04-06T14:48:31.321Z,28.25
2023-04-06T14:50:59.699Z,24.42
2023-04-06T14:53:28.786Z,27.55
2023-04-06T14:55:58.565Z,25.45
2023-04-06T14:58:27.725Z,24.08
2023-04-06T15:00:58.908Z,28.35
2023-04-06T15:03:27.261Z,34.53
2023-04-06T15:05:55.890Z,25.38
2023-04-06T15:08:24.195Z,25.17
2023-04-06T15:10:52.707Z,25.73
2023-04-06T15:13:22.164Z,26.35
2023-04-06T15:15:53.210Z,28.95
2023-04-06T15:18:22.341Z,28.60
2023-04-06T15:20:50.708Z,24.85
2023-04-06T15:23:20.863Z,30.13
2023-04-06T15:25:49.279Z,30.50
2023-04-06T15:28:17.360Z,28.95
2023-04-06T15:30:46.796Z,29.48
2023-04-06T15:33:16.261Z,28.73
2023-04-06T15:35:44.303Z,30.42
2023-04-06T15:38:12.546Z,29.15
2023-04-06T15:40:45.725Z,29.33
2023-04-06T15:43:14.402Z,29.15
2023-04-06T15:45:58.172Z,30.90
2023-04-06T15:48:26.644Z,31.00
2023-04-06T15:51:00.632Z,31.00
2023-04-06T15:53:28.990Z,30.40
2023-04-06T15:56:01.352Z,34.70
2023-04-06T15:58:29.594Z,29.92
2023-04-06T16:00:59.187Z,33.33
2023-04-06T16:03:27.641Z,42.35
2023-04-06T16:06:08.162Z,41.83
2023-04-06T16:08:40.559Z,33.65
2023-04-06T16:11:09.200Z,36.28
2023-04-06T16:13:37.870Z,36.95
2023-04-06T16:16:08.191Z,31.83
2023-04-06T16:18:37.349Z,36.35
2023-04-06T16:21:05.582Z,42.70
2023-04-06T16:23:34.266Z,61.30
2023-04-06T16:26:02.491Z,46.58
2023-04-06T16:28:31.460Z,38.17
2023-04-06T16:30:59.493Z,37.90
2023-04-06T16:33:28.920Z,31.67
2023-04-06T16:35:56.936Z,33.53
2023-04-06T16:38:25.781Z,35.05
2023-04-06T16:41:01.644Z,40.63
2023-04-06T16:43:29.806Z,34.63
2023-04-06T16:45:57.846Z,34.85
2023-04-06T16:48:25.976Z,34.60
2023-04-06T16:50:56.241Z,33.22
2023-04-06T16:53:24.340Z,35.65
2023-04-06T16:55:52.478Z,35.53
2023-04-06T16:58:20.577Z,34.28
2023-04-06T17:00:48.616Z,34.05
2023-04-06T17:03:16.962Z,33.90
2023-04-06T17:05:45.455Z,33.40
2023-04-06T17:08:14.885Z,36.47
2023-04-06T17:13:14.957Z,32.95
2023-04-06T17:15:44.242Z,33.15
2023-04-06T17:18:12.863Z,32.58
2023-04-06T17:20:41.355Z,32.80
2023-04-06T17:23:09.452Z,32.47
2023-04-06T17:25:39.024Z,31.08
2023-04-06T17:28:07.158Z,34.72
2023-04-06T17:30:35.297Z,32.13
2023-04-06T17:33:03.672Z,32.97
2023-04-06T17:35:31.816Z,34.90
2023-04-06T17:37:59.888Z,38.85
2023-04-06T17:40:27.943Z,38.38
2023-04-06T17:42:57.577Z,35.63
2023-04-06T17:45:25.898Z,32.60
2023-04-06T17:47:53.912Z,32.45
2023-04-06T17:50:22.114Z,30.02
2023-04-06T17:52:52.053Z,30.65
2023-04-06T17:55:22.490Z,31.98
2023-04-06T17:57:51.374Z,27.02
2023-04-06T18:00:24.347Z,29.73
2023-04-06T18:02:54.404Z,28.95
2023-04-06T18:05:43.795Z,28.85
2023-04-06T18:08:12.761Z,28.00
2023-04-06T18:10:42.335Z,27.60
2023-04-06T18:13:11.760Z,26.25
2023-04-06T18:15:41.383Z,25.30
2023-04-06T18:18:09.580Z,25.88
2023-04-06T18:20:41.260Z,27.90
2023-04-06T18:23:09.353Z,29.20
2023-04-06T18:25:39.768Z,28.65
2023-04-06T18:28:08.451Z,26.23
2023-04-06T18:30:36.576Z,26.48
2023-04-06T18:33:07.643Z,30.10
2023-04-06T18:35:35.922Z,29.23
2023-04-06T18:38:04.033Z,28.75
2023-04-06T18:40:33.177Z,30.30
2023-04-06T18:43:01.884Z,31.65
2023-04-06T18:45:30.002Z,30.05
2023-04-06T18:47:58.222Z,26.58
2023-04-06T18:50:27.704Z,28.23
2023-04-06T18:52:56.129Z,28.58
2023-04-06T18:55:24.177Z,30.95
2023-04-06T18:57:52.316Z,27.13
2023-04-06T19:00:20.694Z,31.30
2023-04-06T19:02:49.183Z,28.27
2023-04-06T19:05:17.365Z,27.83
2023-04-06T19:07:52.399Z,27.75
2023-04-06T19:10:20.996Z,30.80
2023-04-06T19:12:49.719Z,28.50
2023-04-06T19:15:17.892Z,30.42
2023-04-06T19:17:45.969Z,27.77
2023-04-06T19:20:14.153Z,28.33
2023-04-06T19:22:42.264Z,29.08
2023-04-06T19:25:12.155Z,28.77
2023-04-06T19:27:40.380Z,30.33
2023-04-06T19:30:09.840Z,29.38
2023-04-06T19:32:38.594Z,29.85
2023-04-06T19:35:09.632Z,28.05
2023-04-06T19:37:38.112Z,30.80
2023-04-06T19:40:10.444Z,31.33
2023-04-06T19:42:39.904Z,32.10
2023-04-06T19:45:09.004Z,31.55
2023-04-06T19:47:38.175Z,30.65
2023-04-06T19:50:07.488Z,31.60
2023-04-06T19:52:35.854Z,32.47
2023-04-06T19:55:04.331Z,32.20
2023-04-06T19:57:32.412Z,32.80
2023-04-06T20:00:01.819Z,38.90
2023-04-06T20:02:37.724Z,32.13
2023-04-06T20:05:06.538Z,35.22
2023-04-06T20:07:34.577Z,34.10
2023-04-06T20:10:06.693Z,34.97
2023-04-06T20:12:36.082Z,32.85
2023-04-06T20:15:06.350Z,32.28
2023-04-06T20:17:34.554Z,34.08
2023-04-06T20:20:02.611Z,34.83
2023-04-06T20:22:30.848Z,35.65
2023-04-06T20:24:58.916Z,34.75
2023-04-06T20:27:27.020Z,38.63
2023-04-06T20:29:55.104Z,34.25
2023-04-06T20:32:24.640Z,35.67
2023-04-06T20:34:53.589Z,40.05
2023-04-06T20:37:24.459Z,35.80
2023-04-06T20:39:52.624Z,34.78
2023-04-06T20:42:21.647Z,38.03
2023-04-06T20:44:49.740Z,39.40
2023-04-06T20:47:17.904Z,42.60
2023-04-06T20:49:47.383Z,37.42
2023-04-06T20:52:16.222Z,40.92
2023-04-06T20:54:44.381Z,36.28
2023-04-06T20:57:12.544Z,39.90
2023-04-06T20:59:40.722Z,34.85
2023-04-06T21:02:09.178Z,35.67
2023-04-06T21:04:38.127Z,41.30
2023-04-06T21:07:08.376Z,36.53
2023-04-06T21:09:38.468Z,39.70
2023-04-06T21:12:07.746Z,36.40
2023-04-06T21:14:36.616Z,34.97
2023-04-06T21:17:05.860Z,38.00
2023-04-06T21:19:33.970Z,38.90
2023-04-06T21:22:02.048Z,35.03
2023-04-06T21:24:31.536Z,35.53
2023-04-06T21:26:59.645Z,42.72
2023-04-06T21:29:27.767Z,37.75
2023-04-06T21:31:55.883Z,35.47
2023-04-06T21:34:23.954Z,37.13
2023-04-06T21:36:52.076Z,37.47
2023-04-06T21:39:20.346Z,38.03
2023-04-06T21:41:49.807Z,34.10
2023-04-06T21:44:18.139Z,36.95
2023-04-06T21:46:46.389Z,36.25
2023-04-06T21:49:14.433Z,35.13
2023-04-06T21:51:42.576Z,36.17
2023-04-06T21:54:10.711Z,35.17
2023-04-06T21:56:39.510Z,36.90
2023-04-06T21:59:08.925Z,36.47
2023-04-06T22:01:37.100Z,37.75
2023-04-06T22:04:05.409Z,37.38
2023-04-06T22:06:33.525Z,34.83
2023-04-06T22:09:02.002Z,37.75
2023-04-06T22:11:30.148Z,35.17
2023-04-06T22:13:58.218Z,32.70
2023-04-06T22:16:27.763Z,32.55
2023-04-06T22:18:55.844Z,31.08
2023-04-06T22:21:23.869Z,31.23
2023-04-06T22:23:52.277Z,31.75
2023-04-06T22:26:20.310Z,33.88
2023-04-06T22:28:48.389Z,31.30
2023-04-06T22:31:16.531Z,31.48
2023-04-06T22:33:45.934Z,31.80
2023-04-06T22:36:14.074Z,30.65
2023-04-06T22:38:43.962Z,30.73
2023-04-06T22:41:12.043Z,30.75
2023-04-06T22:43:40.092Z,30.55
2023-04-06T22:46:08.187Z,31.42
2023-04-06T22:48:36.261Z,26.70
2023-04-06T22:51:06.106Z,26.30
2023-04-06T22:53:34.141Z,25.45
2023-04-06T22:56:02.432Z,29.00
2023-04-06T22:58:30.477Z,25.88
2023-04-06T23:00:58.520Z,25.60
2023-04-06T23:03:27.303Z,26.33
2023-04-06T23:05:55.464Z,24.92
2023-04-06T23:08:24.891Z,25.65
2023-04-06T23:10:52.919Z,24.02
2023-04-06T23:13:21.028Z,21.80
2023-04-06T23:15:49.456Z,23.85
2023-04-06T23:18:17.515Z,23.63
2023-04-06T23:20:45.506Z,21.88
2023-04-06T23:23:13.561Z,23.52
2023-04-06T23:25:43.275Z,22.58
2023-04-06T23:28:11.349Z,22.48
2023-04-06T23:30:39.389Z,21.52
2023-04-06T23:33:07.449Z,22.38
2023-04-06T23:35:35.675Z,20.80
2023-04-06T23:38:03.684Z,21.27
2023-04-06T23:40:31.748Z,19.83
2023-04-06T23:43:01.180Z,20.30
2023-04-06T23:45:29.236Z,19.08
2023-04-06T23:47:57.442Z,19.80
2023-04-06T23:50:25.657Z,21.58
2023-04-06T23:52:53.693Z,18.85
2023-04-06T23:55:21.709Z,20.30
2023-04-06T23:57:49.726Z,19.67
